Time;durP1;ratioP1;P1;durP2;ratioP2;P2;SDS_P1;SDS_P2;PMS_P1;PMS_P2;Temp;Humidity;BMP_temperature;BMP_pressure;BME280_temperature;BME280_humidity;BME280_pressure;Samples;Min_cycle;Max_cycle;Signal;HPM_P1;HPM_P2
2021/05/18 00:01:35;;;;;;;1999.90;999.90;;;8.70;99.90;;;;;;5037368;28;20206;-79
2021/05/18 00:04:01;;;;;;;1999.90;999.90;;;8.80;99.90;;;;;;5036017;28;20232;-79
2021/05/18 00:06:27;;;;;;;1999.90;999.90;;;8.80;99.90;;;;;;5036705;28;20179;-78
2021/05/18 00:11:44;;;;;;;1999.90;999.90;;;8.80;99.90;;;;;;5037299;28;20279;-78
2021/05/18 00:14:21;;;;;;;1999.90;999.90;;;8.80;99.90;;;;;;5037224;28;20197;-79
2021/05/18 00:16:48;;;;;;;1999.90;999.90;;;8.80;99.90;;;;;;5026781;28;20174;-79
2021/05/18 00:19:14;;;;;;;1999.90;999.90;;;8.80;99.90;;;;;;5019647;28;20182;-79
2021/05/18 00:21:41;;;;;;;1999.90;999.90;;;8.80;99.90;;;;;;5037067;28;20782;-79
2021/05/18 00:24:07;;;;;;;1999.90;999.90;;;8.90;99.90;;;;;;5037857;28;20687;-78
2021/05/18 00:26:33;;;;;;;1999.90;999.90;;;8.80;99.90;;;;;;5020688;28;20183;-79
2021/05/18 00:29:00;;;;;;;1999.90;999.90;;;8.80;99.90;;;;;;5038043;28;20182;-79
2021/05/18 00:31:25;;;;;;;1999.90;999.90;;;8.80;99.90;;;;;;5020181;28;20674;-80
2021/05/18 00:33:51;;;;;;;1999.90;999.90;;;8.80;99.90;;;;;;5038206;28;20193;-79
2021/05/18 00:36:17;;;;;;;1999.90;999.90;;;8.70;99.90;;;;;;5020060;28;20661;-80
2021/05/18 00:38:42;;;;;;;1999.90;999.90;;;8.80;99.90;;;;;;5037313;28;20188;-79
2021/05/18 00:41:09;;;;;;;1999.90;999.90;;;8.80;99.90;;;;;;5019184;28;20230;-79
2021/05/18 00:43:37;;;;;;;1999.90;999.90;;;8.60;99.90;;;;;;5037175;28;20257;-79
2021/05/18 00:46:04;;;;;;;1999.90;999.90;;;8.70;99.90;;;;;;5037134;28;20183;-78
2021/05/18 00:48:30;;;;;;;1999.90;999.90;;;8.70;99.90;;;;;;5019571;28;20191;-80
2021/05/18 00:51:07;;;;;;;1999.90;999.90;;;8.80;99.90;;;;;;5036301;28;20206;-78
2021/05/18 00:53:34;;;;;;;1999.90;999.90;;;8.70;99.90;;;;;;5036636;28;20680;-79
2021/05/18 00:56:05;;;;;;;1999.90;999.90;;;8.70;99.90;;;;;;5018888;28;20178;-77
2021/05/18 00:58:35;;;;;;;1999.90;999.90;;;8.70;99.90;;;;;;5036157;28;20246;-79
2021/05/18 01:01:11;;;;;;;1999.90;999.90;;;8.80;99.90;;;;;;5037679;28;20281;-78
2021/05/18 01:03:38;;;;;;;1999.90;999.90;;;8.80;99.90;;;;;;5037370;28;20225;-78
2021/05/18 01:08:55;;;;;;;1999.90;999.90;;;8.70;99.90;;;;;;5036929;28;20183;-79
2021/05/18 01:11:27;;;;;;;1999.90;999.90;;;8.70;99.90;;;;;;5036203;28;20199;-78
2021/05/18 01:14:00;;;;;;;1999.90;999.90;;;8.60;99.90;;;;;;5036390;28;20545;-79
2021/05/18 01:16:29;;;;;;;1999.90;999.90;;;8.60;99.90;;;;;;5018813;28;20273;-79
2021/05/18 01:18:55;;;;;;;1999.90;999.90;;;8.60;99.90;;;;;;5036537;28;20191;-79
2021/05/18 01:21:21;;;;;;;1999.90;999.90;;;8.70;99.90;;;;;;5035763;28;20218;-79
2021/05/18 01:23:47;;;;;;;1999.90;999.90;;;8.60;99.90;;;;;;5018429;28;20289;-79
2021/05/18 01:26:14;;;;;;;1999.90;999.90;;;8.60;99.90;;;;;;5036168;28;20197;-79
2021/05/18 01:28:41;;;;;;;1999.90;999.90;;;8.60;99.90;;;;;;5035553;28;20179;-79
2021/05/18 01:31:08;;;;;;;1999.90;999.90;;;8.60;99.90;;;;;;5035251;28;20198;-79
2021/05/18 01:33:34;;;;;;;1999.90;999.90;;;8.60;99.90;;;;;;5035911;28;20174;-78
2021/05/18 01:36:01;;;;;;;1999.90;999.90;;;8.60;99.90;;;;;;5037409;28;20198;-78
2021/05/18 01:38:38;;;;;;;1999.90;999.90;;;8.70;99.90;;;;;;5036068;28;20183;-80
2021/05/18 01:43:53;;;;;;;1999.90;999.90;;;8.60;99.90;;;;;;5037198;28;20228;-79
2021/05/18 01:46:21;;;;;;;1999.90;999.90;;;8.50;99.90;;;;;;5017967;28;20175;-79
2021/05/18 01:48:58;;;;;;;1999.90;999.90;;;8.60;99.90;;;;;;5034839;28;20741;-80
2021/05/18 01:51:33;;;;;;;1999.90;999.90;;;8.60;99.90;;;;;;5036746;28;20661;-79
2021/05/18 01:54:03;;;;;;;1999.90;999.90;;;8.60;99.90;;;;;;5019141;28;20178;-80
2021/05/18 01:59:18;;;;;;;1999.90;999.90;;;8.50;99.90;;;;;;5029114;28;20733;-79
2021/05/18 02:01:45;;;;;;;1999.90;999.90;;;8.50;99.90;;;;;;5029652;28;20210;-78
2021/05/18 02:04:23;;;;;;;1999.90;999.90;;;8.60;99.90;;;;;;5033604;28;20767;-80
2021/05/18 02:06:50;;;;;;;1999.90;999.90;;;8.50;99.90;;;;;;5033838;28;20183;-78
2021/05/18 02:09:16;;;;;;;1999.90;999.90;;;8.50;99.90;;;;;;5034856;28;20174;-79
2021/05/18 02:11:42;;;;;;;1999.90;999.90;;;8.60;99.90;;;;;;5035864;28;20582;-79
2021/05/18 02:14:13;;;;;;;1999.90;999.90;;;8.50;99.90;;;;;;5036244;28;20182;-80
2021/05/18 02:16:41;;;;;;;1999.90;999.90;;;8.60;99.90;;;;;;5034733;28;20183;-79
2021/05/18 02:26:42;;;;;;;1999.90;999.90;;;8.70;99.90;;;;;;5035176;28;20177;-79
2021/05/18 02:29:08;;;;;;;1999.90;999.90;;;8.60;99.90;;;;;;5015201;28;20237;-78
2021/05/18 02:31:34;;;;;;;1999.90;999.90;;;8.60;99.90;;;;;;5017696;28;20201;-79
2021/05/18 02:34:00;;;;;;;1999.90;999.90;;;8.60;99.90;;;;;;5018402;28;20182;-78
2021/05/18 02:36:27;;;;;;;1999.90;999.90;;;8.60;99.90;;;;;;5016720;28;20175;-79
2021/05/18 02:38:54;;;;;;;1999.90;999.90;;;8.60;99.90;;;;;;5034720;28;20232;-77
2021/05/18 02:41:20;;;;;;;1999.90;999.90;;;8.50;99.90;;;;;;5035069;28;20297;-79
2021/05/18 02:43:51;;;;;;;1999.90;999.90;;;8.60;99.90;;;;;;5017163;28;20974;-79
2021/05/18 02:51:26;;;;;;;1999.90;999.90;;;8.50;99.90;;;;;;5034643;28;20353;-80
2021/05/18 02:53:52;;;;;;;1999.90;999.90;;;8.60;99.90;;;;;;5033822;28;20280;-80
2021/05/18 02:58:54;;;;;;;1999.90;999.90;;;8.60;99.90;;;;;;5036096;28;20183;-80
2021/05/18 03:01:20;;;;;;;1999.90;999.90;;;8.50;99.90;;;;;;5036929;28;20202;-79
2021/05/18 03:03:45;;;;;;;1999.90;999.90;;;8.50;99.90;;;;;;5037200;28;20702;-79
2021/05/18 03:06:11;;;;;;;1999.90;999.90;;;8.60;99.90;;;;;;5035636;28;20845;-79
2021/05/18 03:08:38;;;;;;;1999.90;999.90;;;8.60;99.90;;;;;;5017794;28;20171;-80
2021/05/18 03:11:07;;;;;;;1999.90;999.90;;;8.50;99.90;;;;;;5018122;28;20197;-78
2021/05/18 03:13:32;;;;;;;1999.90;999.90;;;8.50;99.90;;;;;;5017844;28;20182;-79
2021/05/18 03:15:58;;;;;;;1999.90;999.90;;;8.60;99.90;;;;;;5016658;28;20185;-79
2021/05/18 03:18:24;;;;;;;1999.90;999.90;;;8.50;99.90;;;;;;5035916;28;20170;-80
2021/05/18 03:20:49;;;;;;;1999.90;999.90;;;8.50;99.90;;;;;;5035139;28;20236;-79
2021/05/18 03:23:15;;;;;;;1999.90;999.90;;;8.60;99.90;;;;;;5018369;28;20234;-78
2021/05/18 03:25:41;;;;;;;1999.90;999.90;;;8.60;99.90;;;;;;5037979;28;20171;-80
2021/05/18 03:28:06;;;;;;;1999.90;999.90;;;8.50;99.90;;;;;;5036086;28;20735;-79
2021/05/18 03:35:43;;;;;;;1999.90;999.90;;;8.60;99.90;;;;;;5037078;28;20609;-79
2021/05/18 03:38:19;;;;;;;1999.90;999.90;;;8.70;99.90;;;;;;5037305;28;20182;-80
2021/05/18 03:40:52;;;;;;;1999.90;999.90;;;8.70;99.90;;;;;;5036197;28;20194;-80
2021/05/18 03:54:22;;;;;;;1999.90;999.90;;;8.70;99.90;;;;;;5037691;28;20232;-78
2021/05/18 04:05:10;;;;;;;1999.90;999.90;;;8.70;99.90;;;;;;5040366;28;20755;-78
2021/05/18 04:21:48;;;;;;;1999.90;999.90;;;8.70;99.90;;;;;;5027702;28;20260;-78
2021/05/18 04:24:34;;;;;;;1999.90;999.90;;;8.70;99.90;;;;;;5040592;28;20194;-78
2021/05/18 04:49:20;;;;;;;1999.90;999.90;;;8.80;99.90;;;;;;5038575;28;20280;-82
2021/05/18 04:54:47;;;;;;;1999.90;999.90;;;8.90;99.90;;;;;;5038535;28;20553;-82
2021/05/18 04:59:54;;;;;;;1999.90;999.90;;;8.80;99.90;;;;;;5040027;28;20209;-81
2021/05/18 05:08:10;;;;;;;1999.90;999.90;;;9.10;99.90;;;;;;5040509;28;20181;-83
2021/05/18 05:15:32;;;;;;;1999.90;999.90;;;9.20;99.90;;;;;;5040967;28;20221;-82
2021/05/18 05:17:58;;;;;;;1999.90;999.90;;;9.20;99.90;;;;;;5040634;28;20175;-83
2021/05/18 05:22:59;;;;;;;1999.90;999.90;;;9.20;99.90;;;;;;5037219;22;20262;-84
2021/05/18 05:25:24;;;;;;;1999.90;999.90;;;9.10;99.90;;;;;;5004536;28;20209;-84
2021/05/18 05:27:51;;;;;;;1999.90;999.90;;;9.10;99.90;;;;;;5018839;28;20179;-84
2021/05/18 05:30:17;;;;;;;1999.90;999.90;;;9.10;99.90;;;;;;5020561;28;20221;-85
2021/05/18 05:32:42;;;;;;;1999.90;999.90;;;9.00;99.90;;;;;;5021393;28;20201;-84
2021/05/18 05:35:10;;;;;;;1999.90;999.90;;;9.10;99.90;;;;;;5020898;28;20258;-84
2021/05/18 05:37:36;;;;;;;1999.90;999.90;;;9.10;99.90;;;;;;5003307;28;20175;-84
2021/05/18 05:40:03;;;;;;;1999.90;999.90;;;9.20;99.90;;;;;;5002098;28;20188;-85
2021/05/18 05:42:28;;;;;;;1999.90;999.90;;;9.20;99.90;;;;;;5019919;28;20212;-83
2021/05/18 05:44:54;;;;;;;1999.90;999.90;;;9.20;99.90;;;;;;5002169;28;20222;-84
2021/05/18 05:47:20;;;;;;;1999.90;999.90;;;9.20;99.90;;;;;;5019559;28;20236;-82
2021/05/18 05:49:46;;;;;;;1999.90;999.90;;;9.20;99.90;;;;;;5020304;28;20167;-81
2021/05/18 05:52:18;;;;;;;1999.90;999.90;;;9.10;99.90;;;;;;4995328;28;20188;-83
2021/05/18 05:54:44;;;;;;;1999.90;999.90;;;9.10;99.90;;;;;;5014858;28;20178;-84
2021/05/18 05:57:10;;;;;;;1999.90;999.90;;;9.20;99.90;;;;;;5019981;28;20171;-83
2021/05/18 05:59:36;;;;;;;1999.90;999.90;;;9.20;99.90;;;;;;5020220;28;20175;-83
2021/05/18 06:02:03;;;;;;;1999.90;999.90;;;9.20;99.90;;;;;;5019409;28;20237;-83
2021/05/18 06:04:29;;;;;;;1999.90;999.90;;;9.20;99.90;;;;;;5019174;28;20210;-83
2021/05/18 06:06:55;;;;;;;1999.90;999.90;;;9.20;99.90;;;;;;5020223;28;20214;-83
2021/05/18 06:09:21;;;;;;;1999.90;999.90;;;9.20;99.90;;;;;;5002284;28;20540;-83
2021/05/18 06:18:01;;;;;;;1999.90;999.90;;;9.30;99.90;;;;;;5019830;28;20545;-83
2021/05/18 06:42:02;;;;;;;1999.90;999.90;;;9.70;99.90;;;;;;5019362;28;20249;-83
2021/05/18 06:49:45;;;;;;;1999.90;999.90;;;9.80;99.90;;;;;;5020225;28;20190;-83
2021/05/18 06:52:11;;;;;;;1999.90;999.90;;;9.90;99.90;;;;;;4991297;28;20196;-83
2021/05/18 06:54:36;;;;;;;1999.90;999.90;;;9.90;99.90;;;;;;5013452;28;20221;-83
2021/05/18 06:57:05;;;;;;;1999.90;999.90;;;9.90;99.90;;;;;;5019382;28;20178;-83
2021/05/18 07:02:00;;;;;;;1999.90;999.90;;;9.90;99.90;;;;;;5020739;28;20199;-83
2021/05/18 07:04:26;;;;;;;1999.90;999.90;;;10.10;99.90;;;;;;5019492;28;20639;-83
2021/05/18 07:09:47;;;;;;;1999.90;999.90;;;10.30;99.90;;;;;;5000156;28;20194;-82
2021/05/18 07:12:13;;;;;;;1999.90;999.90;;;10.40;99.90;;;;;;4994363;28;20573;-82
2021/05/18 07:14:38;;;;;;;1999.90;999.90;;;10.50;99.90;;;;;;4992856;28;20178;-82
2021/05/18 07:17:04;;;;;;;1999.90;999.90;;;10.40;99.90;;;;;;4999441;28;20552;-82
2021/05/18 07:19:30;;;;;;;1999.90;999.90;;;10.40;99.90;;;;;;5019567;28;20254;-82
2021/05/18 07:21:55;;;;;;;1999.90;999.90;;;10.40;99.90;;;;;;5002298;28;20262;-82
2021/05/18 07:24:26;;;;;;;1999.90;999.90;;;10.40;99.90;;;;;;5014257;28;20717;-83
2021/05/18 07:26:52;;;;;;;1999.90;999.90;;;10.60;99.90;;;;;;5006659;28;20183;-82
2021/05/18 07:29:17;;;;;;;1999.90;999.90;;;10.70;99.90;;;;;;5017034;28;20561;-82
2021/05/18 07:31:43;;;;;;;1999.90;999.90;;;10.80;99.90;;;;;;5001545;28;20195;-82
2021/05/18 07:34:09;;;;;;;1999.90;999.90;;;10.80;99.90;;;;;;5019969;28;20182;-82
2021/05/18 07:36:35;;;;;;;1999.90;999.90;;;10.80;99.90;;;;;;4995057;28;20179;-82
2021/05/18 07:39:02;;;;;;;1999.90;999.90;;;10.90;99.90;;;;;;5018106;28;20186;-82
2021/05/18 07:41:28;;;;;;;1999.90;999.90;;;10.80;99.90;;;;;;4997133;28;20577;-83
2021/05/18 07:43:54;;;;;;;1999.90;999.90;;;10.70;99.90;;;;;;5012885;28;20192;-82
2021/05/18 07:46:22;;;;;;;1999.90;999.90;;;10.60;99.90;;;;;;4985893;28;20196;-82
2021/05/18 07:51:35;;;;;;;1999.90;999.90;;;10.50;99.90;;;;;;5013642;28;20195;-82
2021/05/18 07:59:47;;;;;;;1999.90;999.90;;;10.60;99.90;;;;;;5023587;28;20720;-82
2021/05/18 08:02:24;;;;;;;1999.90;999.90;;;10.50;99.90;;;;;;5022690;28;20274;-82
2021/05/18 08:07:35;;;;;;;1999.90;999.90;;;10.60;99.90;;;;;;5023542;28;20198;-82
2021/05/18 08:10:24;;;;;;;1999.90;999.90;;;10.70;99.90;;;;;;5022361;28;20175;-82
2021/05/18 08:12:49;;;;;;;1999.90;999.90;;;10.70;99.90;;;;;;5022403;28;20195;-82
2021/05/18 08:55:53;;;;;;;1999.90;999.90;;;10.60;99.90;;;;;;5021934;28;20183;-82
2021/05/18 09:34:33;;;;;;;1999.90;999.90;;;10.40;99.90;;;;;;5020556;28;20206;-81
2021/05/18 10:35:57;;;;;;;1999.90;999.90;;;12.50;99.90;;;;;;5019764;28;20188;-82
2021/05/18 10:38:30;;;;;;;1999.90;999.90;;;12.80;99.90;;;;;;5020204;28;20223;-81
2021/05/18 10:41:17;;;;;;;1999.90;999.90;;;12.80;99.90;;;;;;5002515;28;20197;-82
2021/05/18 10:43:44;;;;;;;1999.90;999.90;;;13.10;99.90;;;;;;5007840;28;20671;-81
2021/05/18 10:46:23;;;;;;;1999.90;999.90;;;13.10;99.90;;;;;;5010927;28;20173;-83
2021/05/18 10:48:54;;;;;;;1999.90;999.90;;;13.10;99.90;;;;;;5008407;28;20588;-81
2021/05/18 10:51:22;;;;;;;1999.90;999.90;;;13.10;99.90;;;;;;5010137;28;20251;-82
2021/05/18 10:54:16;;;;;;;1999.90;999.90;;;13.10;99.90;;;;;;4993172;28;20180;-81
2021/05/18 10:57:00;;;;;;;1999.90;999.90;;;13.10;99.90;;;;;;5014201;28;20193;-82
2021/05/18 10:59:27;;;;;;;1999.90;999.90;;;13.10;99.90;;;;;;4998866;28;20185;-82
2021/05/18 11:02:03;;;;;;;1999.90;999.90;;;13.20;99.90;;;;;;5015675;28;20232;-81
2021/05/18 11:04:34;;;;;;;1999.90;999.90;;;13.40;99.90;;;;;;5017541;28;20205;-80
2021/05/18 11:07:03;;;;;;;1999.90;999.90;;;13.60;99.90;;;;;;4999946;28;20198;-80
2021/05/18 11:09:29;;;;;;;1999.90;999.90;;;13.90;99.90;;;;;;5020000;28;20561;-81
2021/05/18 11:12:11;;;;;;;1999.90;999.90;;;14.00;99.90;;;;;;5022951;28;20265;-82
2021/05/18 11:14:49;;;;;;;1999.90;999.90;;;14.20;99.90;;;;;;5020111;28;20712;-82
2021/05/18 11:17:17;;;;;;;1999.90;999.90;;;14.30;99.90;;;;;;5022195;28;20836;-81
2021/05/18 11:19:59;;;;;;;1999.90;999.90;;;14.40;99.90;;;;;;5022526;28;20188;-82
2021/05/18 11:25:10;;;;;;;1999.90;999.90;;;14.40;99.90;;;;;;5021882;28;20183;-82
2021/05/18 11:27:37;;;;;;;1999.90;999.90;;;14.30;99.90;;;;;;5011971;28;20553;-81
2021/05/18 11:30:05;;;;;;;1999.90;999.90;;;14.40;99.90;;;;;;5022928;28;20258;-81
2021/05/18 11:32:31;;;;;;;1999.90;999.90;;;14.50;99.90;;;;;;5021750;28;20197;-82
2021/05/18 11:35:00;;;;;;;1999.90;999.90;;;14.70;99.90;;;;;;5003958;28;20183;-81
2021/05/18 11:37:27;;;;;;;1999.90;999.90;;;14.80;99.90;;;;;;5022064;28;20175;-83
2021/05/18 11:40:16;;;;;;;1999.90;999.90;;;14.90;99.90;;;;;;4992661;28;20206;-83
2021/05/18 11:42:43;;;;;;;1999.90;999.90;;;14.90;99.90;;;;;;5007276;28;20203;-83
2021/05/18 11:45:16;;;;;;;1999.90;999.90;;;14.90;99.90;;;;;;5021694;28;20183;-83
2021/05/18 11:47:43;;;;;;;1999.90;999.90;;;14.90;99.90;;;;;;5003721;28;20186;-83
2021/05/18 11:50:29;;;;;;;1999.90;999.90;;;14.90;99.90;;;;;;5021626;28;20181;-83
2021/05/18 11:52:55;;;;;;;1999.90;999.90;;;14.70;99.90;;;;;;5021810;28;20214;-83
2021/05/18 11:55:27;;;;;;;1999.90;999.90;;;14.60;99.90;;;;;;5021809;28;20218;-83
2021/05/18 11:57:54;;;;;;;1999.90;999.90;;;14.50;99.90;;;;;;5001027;28;20175;-83
2021/05/18 12:00:32;;;;;;;1999.90;999.90;;;14.40;99.90;;;;;;4984056;28;20952;-83
2021/05/18 12:03:16;;;;;;;1999.90;999.90;;;14.40;99.90;;;;;;5001433;28;20210;-84
2021/05/18 12:05:56;;;;;;;1999.90;999.90;;;14.20;99.90;;;;;;5001219;28;20183;-84
2021/05/18 12:08:33;;;;;;;1999.90;999.90;;;14.00;99.90;;;;;;5003918;28;20172;-83
2021/05/18 12:11:20;;;;;;;1999.90;999.90;;;13.80;99.90;;;;;;5021288;28;20226;-83
2021/05/18 12:13:49;;;;;;;1999.90;999.90;;;13.70;99.90;;;;;;5019725;28;20205;-79
2021/05/18 12:16:17;;;;;;;1999.90;999.90;;;13.70;99.90;;;;;;5021862;28;20274;-80
2021/05/18 12:18:44;;;;;;;1999.90;999.90;;;13.70;99.90;;;;;;5002698;28;20185;-81
2021/05/18 12:21:16;;;;;;;1999.90;999.90;;;13.80;99.90;;;;;;5020515;28;20233;-81
2021/05/18 12:23:43;;;;;;;1999.90;999.90;;;13.90;99.90;;;;;;5004375;28;20252;-82
2021/05/18 12:26:19;;;;;;;1999.90;999.90;;;13.70;99.90;;;;;;5021369;28;20196;-82
2021/05/18 12:28:56;;;;;;;1999.90;999.90;;;13.70;99.90;;;;;;5004762;28;20522;-82
2021/05/18 12:31:26;;;;;;;1999.90;999.90;;;13.80;99.90;;;;;;5020512;28;20260;-82
2021/05/18 12:33:52;;;;;;;1999.90;999.90;;;13.90;99.90;;;;;;5022665;28;20244;-82
2021/05/18 12:36:18;;;;;;;1999.90;999.90;;;13.90;99.90;;;;;;5022914;28;20212;-82
2021/05/18 12:39:03;;;;;;;1999.90;999.90;;;13.90;99.90;;;;;;5021394;28;20261;-82
2021/05/18 12:41:29;;;;;;;1999.90;999.90;;;13.90;99.90;;;;;;5021575;28;20203;-82
2021/05/18 12:44:05;;;;;;;1999.90;999.90;;;13.80;99.90;;;;;;5001790;28;20214;-82
2021/05/18 12:46:31;;;;;;;1999.90;999.90;;;13.70;99.90;;;;;;5019856;28;20174;-81
2021/05/18 12:48:56;;;;;;;1999.90;999.90;;;13.60;99.90;;;;;;4987641;28;20193;-81
2021/05/18 12:51:27;;;;;;;1999.90;999.90;;;13.40;99.90;;;;;;4984206;28;20229;-82
2021/05/18 12:54:07;;;;;;;1999.90;999.90;;;13.20;99.90;;;;;;4987192;28;20182;-82
2021/05/18 12:56:32;;;;;;;1999.90;999.90;;;13.40;99.90;;;;;;5003570;28;20172;-82
2021/05/18 12:59:05;;;;;;;1999.90;999.90;;;13.60;99.90;;;;;;5003471;28;20611;-82
2021/05/18 13:01:40;;;;;;;1999.90;999.90;;;13.90;99.90;;;;;;5021728;28;20202;-82
2021/05/18 13:04:11;;;;;;;1999.90;999.90;;;14.10;99.90;;;;;;5021459;28;20247;-83
2021/05/18 13:06:47;;;;;;;1999.90;999.90;;;14.20;99.90;;;;;;5003385;28;20574;-82
2021/05/18 13:09:28;;;;;;;1999.90;999.90;;;14.30;99.90;;;;;;5004216;28;20197;-82
2021/05/18 13:12:15;;;;;;;1999.90;999.90;;;14.30;99.90;;;;;;5021044;28;20604;-82
2021/05/18 13:15:02;;;;;;;1999.90;999.90;;;14.40;99.90;;;;;;5021521;28;20167;-81
2021/05/18 13:17:30;;;;;;;1999.90;999.90;;;14.60;99.90;;;;;;5017793;28;20530;-81
2021/05/18 13:20:00;;;;;;;1999.90;999.90;;;14.70;99.90;;;;;;5003825;28;20260;-81
2021/05/18 13:22:29;;;;;;;1999.90;999.90;;;14.80;99.90;;;;;;5019427;28;20209;-81
2021/05/18 13:27:51;;;;;;;1999.90;999.90;;;14.90;99.90;;;;;;5020987;28;20173;-81
2021/05/18 13:30:18;;;;;;;1999.90;999.90;;;15.00;99.90;;;;;;5020402;28;20256;-82
2021/05/18 13:32:47;;;;;;;1999.90;999.90;;;14.90;99.90;;;;;;5019527;28;20194;-81
2021/05/18 13:35:14;;;;;;;1999.90;999.90;;;14.90;99.90;;;;;;5003959;28;20530;-82
2021/05/18 13:37:39;;;;;;;1999.90;999.90;;;15.00;99.90;;;;;;5020644;28;20182;-81
2021/05/18 13:40:06;;;;;;;1999.90;999.90;;;15.00;99.90;;;;;;5021927;28;20189;-81
2021/05/18 13:42:32;;;;;;;1999.90;999.90;;;15.10;99.90;;;;;;5021737;28;20665;-81
2021/05/18 13:44:57;;;;;;;1999.90;999.90;;;15.00;99.90;;;;;;5002653;28;20183;-79
2021/05/18 13:47:26;;;;;;;1999.90;999.90;;;14.80;99.90;;;;;;5020925;28;20178;-80
2021/05/18 13:49:51;;;;;;;1999.90;999.90;;;14.80;99.90;;;;;;5014213;28;20682;-81
2021/05/18 13:52:17;;;;;;;1999.90;999.90;;;14.50;99.90;;;;;;5009005;28;20187;-81
2021/05/18 13:54:42;;;;;;;1999.90;999.90;;;14.30;99.90;;;;;;4982052;28;20179;-81
2021/05/18 13:57:09;;;;;;;1999.90;999.90;;;14.10;99.90;;;;;;5011296;28;20175;-82
2021/05/18 13:59:34;;;;;;;1999.90;999.90;;;14.10;99.90;;;;;;5000866;28;20202;-81
2021/05/18 14:02:00;;;;;;;1999.90;999.90;;;13.90;99.90;;;;;;5017958;28;20549;-83
2021/05/18 14:04:26;;;;;;;1999.90;999.90;;;13.70;99.90;;;;;;5018758;28;20272;-81
2021/05/18 14:07:23;;;;;;;1999.90;999.90;;;13.50;99.90;;;;;;5002300;28;20202;-83
2021/05/18 14:09:49;;;;;;;1999.90;999.90;;;13.30;99.90;;;;;;5019071;28;20728;-82
2021/05/18 14:12:14;;;;;;;1999.90;999.90;;;13.30;99.90;;;;;;5018696;28;20299;-81
2021/05/18 14:14:40;;;;;;;1999.90;999.90;;;13.40;99.90;;;;;;5001386;28;20209;-81
2021/05/18 14:17:06;;;;;;;1999.90;999.90;;;13.50;99.90;;;;;;5018687;28;20184;-77
2021/05/18 14:19:31;;;;;;;1999.90;999.90;;;13.70;99.90;;;;;;5013844;28;20179;-75
2021/05/18 14:21:57;;;;;;;1999.90;999.90;;;13.90;99.90;;;;;;5013391;28;20303;-77
2021/05/18 14:24:34;;;;;;;1999.90;999.90;;;14.20;99.90;;;;;;5014019;28;20197;-77
2021/05/18 14:27:00;;;;;;;1999.90;999.90;;;14.40;99.90;;;;;;5014101;28;20167;-78
2021/05/18 14:29:25;;;;;;;1999.90;999.90;;;14.60;99.90;;;;;;5014245;28;20676;-78
2021/05/18 14:31:54;;;;;;;1999.90;999.90;;;14.60;99.90;;;;;;5014161;28;20227;-77
2021/05/18 14:34:20;;;;;;;1999.90;999.90;;;14.70;99.90;;;;;;4992895;28;20187;-77
2021/05/18 14:36:45;;;;;;;1999.90;999.90;;;14.70;99.90;;;;;;5005890;28;20213;-77
2021/05/18 14:39:12;;;;;;;1999.90;999.90;;;14.60;99.90;;;;;;5014131;28;20198;-78
2021/05/18 14:44:26;;;;;;;1999.90;999.90;;;14.50;99.90;;;;;;5012820;28;20740;-78
2021/05/18 14:47:15;;;;;;;1999.90;999.90;;;14.40;99.90;;;;;;5011782;28;20229;-76
2021/05/18 14:55:20;;;;;;;1999.90;999.90;;;14.30;99.90;;;;;;5012710;28;20194;-76
2021/05/18 14:57:47;;;;;;;1999.90;999.90;;;14.20;99.90;;;;;;5012884;28;20171;-77
2021/05/18 15:00:13;;;;;;;1999.90;999.90;;;14.00;99.90;;;;;;5013643;28;20186;-77
2021/05/18 15:02:38;;;;;;;1999.90;999.90;;;13.90;99.90;;;;;;5013135;28;20603;-77
2021/05/18 15:05:05;;;;;;;1999.90;999.90;;;13.90;99.90;;;;;;5012917;28;20195;-78
2021/05/18 15:07:30;;;;;;;1999.90;999.90;;;13.80;99.90;;;;;;4996156;28;20589;-76
2021/05/18 15:09:56;;;;;;;1999.90;999.90;;;13.70;99.90;;;;;;5013141;28;20201;-78
2021/05/18 15:12:22;;;;;;;1999.90;999.90;;;13.60;99.90;;;;;;5013378;28;20195;-77
2021/05/18 15:14:48;;;;;;;1999.90;999.90;;;13.50;99.90;;;;;;4992648;28;20247;-73
2021/05/18 15:17:14;;;;;;;1999.90;999.90;;;13.60;99.90;;;;;;5013371;28;20184;-77
2021/05/18 15:19:40;;;;;;;1999.90;999.90;;;13.50;99.90;;;;;;4995191;28;20727;-77
2021/05/18 15:22:05;;;;;;;1999.90;999.90;;;13.50;99.90;;;;;;5012261;28;20297;-77
2021/05/18 15:24:31;;;;;;;1999.90;999.90;;;13.30;99.90;;;;;;5003121;28;20194;-77
2021/05/18 15:26:57;;;;;;;1999.90;999.90;;;13.30;99.90;;;;;;5012944;28;20260;-77
2021/05/18 15:29:23;;;;;;;1999.90;999.90;;;13.30;99.90;;;;;;5007688;28;20181;-77
2021/05/18 15:31:49;;;;;;;1999.90;999.90;;;13.30;99.90;;;;;;5012498;28;20197;-77
2021/05/18 15:34:15;;;;;;;1999.90;999.90;;;13.20;99.90;;;;;;5006954;28;20185;-76
2021/05/18 15:36:43;;;;;;;1999.90;999.90;;;13.20;99.90;;;;;;5011187;28;20174;-77
2021/05/18 15:39:09;;;;;;;1999.90;999.90;;;13.10;99.90;;;;;;5012590;28;20205;-77
2021/05/18 15:41:35;;;;;;;1999.90;999.90;;;13.10;99.90;;;;;;5011525;28;20302;-78
2021/05/18 15:44:02;;;;;;;1999.90;999.90;;;13.10;99.90;;;;;;5012088;28;20206;-77
2021/05/18 15:46:29;;;;;;;1999.90;999.90;;;13.00;99.90;;;;;;4995116;28;20579;-76
2021/05/18 15:48:54;;;;;;;1999.90;999.90;;;13.10;99.90;;;;;;5011089;28;20181;-76
2021/05/18 15:51:20;;;;;;;1999.90;999.90;;;13.10;99.90;;;;;;5012097;28;20202;-76
2021/05/18 15:53:46;;;;;;;1999.90;999.90;;;13.10;99.90;;;;;;4994412;28;20178;-78
2021/05/18 15:56:12;;;;;;;1999.90;999.90;;;13.10;99.90;;;;;;4992643;28;20170;-76
2021/05/18 15:58:38;;;;;;;1999.90;999.90;;;13.20;99.90;;;;;;5006889;28;20193;-77
2021/05/18 16:01:03;;;;;;;1999.90;999.90;;;13.20;99.90;;;;;;4998148;28;20208;-76
2021/05/18 16:03:29;;;;;;;1999.90;999.90;;;13.20;99.90;;;;;;4995001;28;20201;-76
2021/05/18 16:05:58;;;;;;;1999.90;999.90;;;13.20;99.90;;;;;;4986818;28;20167;-73
2021/05/18 16:10:57;;;;;;;1999.90;999.90;;;13.20;99.90;;;;;;5015806;28;20577;-76
2021/05/18 16:13:23;;;;;;;1999.90;999.90;;;13.20;99.90;;;;;;5015694;28;20178;-74
2021/05/18 16:15:49;;;;;;;1999.90;999.90;;;13.30;99.90;;;;;;4998631;28;20186;-75
2021/05/18 16:18:15;;;;;;;1999.90;999.90;;;13.20;99.90;;;;;;5016170;28;20261;-75
2021/05/18 16:20:44;;;;;;;1999.90;999.90;;;13.30;99.90;;;;;;4994264;28;20175;-75
2021/05/18 16:23:13;;;;;;;1999.90;999.90;;;13.30;99.90;;;;;;5012223;28;20622;-76
2021/05/18 16:25:38;;;;;;;1999.90;999.90;;;13.30;99.90;;;;;;4996747;28;20176;-78
2021/05/18 16:28:04;;;;;;;1999.90;999.90;;;13.30;99.90;;;;;;5011966;28;20198;-78
2021/05/18 16:30:30;;;;;;;1999.90;999.90;;;13.30;99.90;;;;;;5003544;28;20206;-77
2021/05/18 16:32:55;;;;;;;1999.90;999.90;;;13.30;99.90;;;;;;4997549;28;20220;-76
2021/05/18 16:35:21;;;;;;;1999.90;999.90;;;13.30;99.90;;;;;;5014979;28;20264;-78
2021/05/18 16:37:47;;;;;;;1999.90;999.90;;;13.30;99.90;;;;;;4997163;28;20179;-76
2021/05/18 16:40:13;;;;;;;1999.90;999.90;;;13.30;99.90;;;;;;4989829;28;20775;-77
2021/05/18 16:42:39;;;;;;;1999.90;999.90;;;13.40;99.90;;;;;;5014252;28;20199;-76
2021/05/18 16:45:07;;;;;;;1999.90;999.90;;;13.40;99.90;;;;;;5010595;28;20175;-76
2021/05/18 16:47:33;;;;;;;1999.90;999.90;;;13.40;99.90;;;;;;5006251;28;20248;-76
2021/05/18 16:49:59;;;;;;;1999.90;999.90;;;13.40;99.90;;;;;;5013728;28;20186;-77
2021/05/18 16:52:27;;;;;;;1999.90;999.90;;;13.50;99.90;;;;;;5014757;28;20699;-77
2021/05/18 16:54:53;;;;;;;1999.90;999.90;;;13.50;99.90;;;;;;5004425;28;20203;-77
2021/05/18 16:57:19;;;;;;;1999.90;999.90;;;13.50;99.90;;;;;;5010224;28;20179;-76
2021/05/18 16:59:45;;;;;;;1999.90;999.90;;;13.50;99.90;;;;;;5007914;28;20665;-78
2021/05/18 17:02:10;;;;;;;1999.90;999.90;;;13.40;99.90;;;;;;5010529;28;20240;-78
2021/05/18 17:04:36;;;;;;;1999.90;999.90;;;13.40;99.90;;;;;;5006814;28;20197;-77
2021/05/18 17:07:03;;;;;;;1999.90;999.90;;;13.40;99.90;;;;;;5012267;28;20172;-77
2021/05/18 17:09:29;;;;;;;1999.90;999.90;;;13.40;99.90;;;;;;5009649;28;20182;-78
2021/05/18 17:11:57;;;;;;;1999.90;999.90;;;13.40;99.90;;;;;;5009328;28;20281;-78
2021/05/18 17:14:23;;;;;;;1999.90;999.90;;;13.40;99.90;;;;;;4989275;28;20210;-78
2021/05/18 17:16:49;;;;;;;1999.90;999.90;;;13.40;99.90;;;;;;5004931;28;20654;-79
2021/05/18 17:19:14;;;;;;;1999.90;999.90;;;13.40;99.90;;;;;;5012084;28;20594;-77